Terminal Aerodrome Forecast
Issued by NWS Wilmington, OH

Home | Current Version | Previous Version | Text Only | Print | Product List | Glossary On
Versions: 1 2 3 4 5 6 7 8 9 10 11 12 13 14 15
000
FTUS41 KILN 301700
TAFDAY
TAF
KDAY 301720Z 3018/3118 27013G21KT P6SM SCT050
     FM302200 22013KT P6SM BKN100
     FM310900 23013G21KT P6SM BKN100
     FM311500 26016G26KT P6SM SCT040=

USA.gov is the U.S. government's official web portal to all federal, state and local government web resources and services.